Las Bayas, Argentina
Current Conditions -  °F | °C
As of 5:00 PM on Thursday 29 Jan 2015 (Local Time) from SAZS Reporting Station
Clear Clear  
Wind Chill: 84°   Ceiling: Unl
Heat Index: 84°   Visibility: 6mi
Dew Point: 30°   Wind: 14mph
Humidity: 14%   Direction: 290°WNW
Pressure: 29.91"   Gusts: NA
Location:  41.29°S, 70.7°W
Report Text: SAZS 292000Z 29012KT CAVOK 29/M01 Q1013
Loading
Personal Weather Stations






























Interactive Weather Map New forecast layout! Learn more

10-Day Weather Forecast

Advertisements
Track Severe Weather on mobile